Time;durP1;ratioP1;P1;durP2;ratioP2;P2;SDS_P1;SDS_P2;PMS_P1;PMS_P2;Temp;Humidity;BMP_temperature;BMP_pressure;BME280_temperature;BME280_humidity;BME280_pressure;Samples;Min_cycle;Max_cycle;Signal;HPM_P1;HPM_P2
2024/03/14 00:00:17;;;;;;;12.05;5.43;;;9.00;99.90;;;;;;5119172;27;20032;-59
2024/03/14 00:03:03;;;;;;;6.82;4.32;;;9.00;99.90;;;;;;5102441;28;20127;-61
2024/03/14 00:05:49;;;;;;;8.05;5.00;;;9.00;99.90;;;;;;5118670;27;20035;-61
2024/03/14 00:08:35;;;;;;;7.00;4.68;;;9.00;99.90;;;;;;5115685;27;20121;-61
2024/03/14 00:11:21;;;;;;;8.38;5.25;;;9.00;99.90;;;;;;5115448;27;20039;-62
2024/03/14 00:14:08;;;;;;;7.10;5.00;;;8.90;99.90;;;;;;5113623;27;20059;-61
2024/03/14 00:16:54;;;;;;;9.68;5.18;;;8.90;99.90;;;;;;5123671;27;20042;-61
2024/03/14 00:19:39;;;;;;;10.57;5.57;;;9.00;99.90;;;;;;5103750;27;20042;-61
2024/03/14 00:22:26;;;;;;;10.45;5.25;;;9.00;99.90;;;;;;5108554;27;20043;-61
2024/03/14 00:25:12;;;;;;;14.13;5.77;;;9.00;99.90;;;;;;5104639;27;20028;-61
2024/03/14 00:27:58;;;;;;;7.63;5.20;;;9.00;99.90;;;;;;5105322;27;20028;-61
2024/03/14 00:30:44;;;;;;;9.18;6.15;;;8.90;99.90;;;;;;5088043;27;20338;-62
2024/03/14 00:33:32;;;;;;;8.07;5.47;;;8.90;99.90;;;;;;5093128;28;20149;-62
2024/03/14 00:36:18;;;;;;;9.35;5.85;;;8.90;99.90;;;;;;5102175;27;20035;-61
2024/03/14 00:39:07;;;;;;;13.27;6.63;;;8.90;99.90;;;;;;5092679;28;20506;-61
2024/03/14 00:41:53;;;;;;;8.65;5.80;;;8.90;99.90;;;;;;5100191;28;20031;-62
2024/03/14 00:44:39;;;;;;;10.50;6.45;;;8.90;99.90;;;;;;5102887;28;20031;-62
2024/03/14 00:47:26;;;;;;;8.38;6.20;;;9.00;99.90;;;;;;5104698;28;20062;-62
2024/03/14 00:50:13;;;;;;;10.98;6.10;;;9.00;99.90;;;;;;5102148;28;20024;-62
2024/03/14 00:53:00;;;;;;;12.82;5.95;;;9.00;99.90;;;;;;5104121;28;20024;-61
2024/03/14 00:55:46;;;;;;;8.25;5.38;;;9.00;99.90;;;;;;5099283;27;20036;-62
2024/03/14 00:58:32;;;;;;;9.20;5.45;;;8.90;99.90;;;;;;5097272;28;20090;-60
2024/03/14 01:01:18;;;;;;;11.82;7.00;;;8.90;99.90;;;;;;5068927;22;20057;-65
2024/03/14 01:04:04;;;;;;;9.90;6.07;;;8.90;99.90;;;;;;5034161;28;20072;-64
2024/03/14 01:06:52;;;;;;;13.00;6.95;;;8.90;99.90;;;;;;5029032;28;20041;-62
2024/03/14 01:09:39;;;;;;;13.10;6.97;;;8.90;99.90;;;;;;5012616;28;20030;-62
2024/03/14 01:12:25;;;;;;;12.88;7.03;;;8.90;99.90;;;;;;5017960;28;20034;-62
2024/03/14 01:15:13;;;;;;;12.57;7.30;;;8.90;99.90;;;;;;5016764;28;20505;-62
2024/03/14 01:17:59;;;;;;;11.45;7.20;;;9.00;99.90;;;;;;5023222;28;20033;-62
2024/03/14 01:20:45;;;;;;;13.38;7.57;;;8.90;99.90;;;;;;5020588;28;20482;-62
2024/03/14 01:23:31;;;;;;;14.10;7.87;;;8.90;99.90;;;;;;5022799;28;20132;-62
2024/03/14 01:26:20;;;;;;;10.88;7.75;;;8.90;99.90;;;;;;5016062;28;20033;-62
2024/03/14 01:29:06;;;;;;;12.07;7.13;;;8.90;99.90;;;;;;5013264;28;20037;-62
2024/03/14 01:31:52;;;;;;;12.50;7.18;;;9.00;99.90;;;;;;5017514;28;20044;-62
2024/03/14 01:34:38;;;;;;;11.73;6.72;;;9.00;99.90;;;;;;5012699;28;20038;-62
2024/03/14 01:37:24;;;;;;;17.35;8.27;;;8.90;99.90;;;;;;5017966;28;20052;-62
2024/03/14 01:40:13;;;;;;;12.73;7.85;;;8.90;99.90;;;;;;5019591;28;20112;-62
2024/03/14 01:42:59;;;;;;;13.02;8.32;;;8.90;99.90;;;;;;5016659;28;20044;-63
2024/03/14 01:45:47;;;;;;;14.07;7.90;;;9.00;99.90;;;;;;5016762;28;20045;-62
2024/03/14 01:48:34;;;;;;;14.90;8.65;;;9.00;99.90;;;;;;5022172;28;20034;-62
2024/03/14 01:51:20;;;;;;;12.75;8.23;;;9.00;99.90;;;;;;5019063;28;20041;-62
2024/03/14 01:54:06;;;;;;;14.75;8.32;;;9.00;99.90;;;;;;5019671;28;20025;-62
2024/03/14 01:56:58;;;;;;;15.63;8.40;;;9.00;99.90;;;;;;5014794;28;20043;-62
2024/03/14 01:59:48;;;;;;;14.35;8.70;;;9.00;99.90;;;;;;5019129;28;20111;-62
2024/03/14 02:02:35;;;;;;;14.35;8.25;;;9.00;99.90;;;;;;5014072;28;20045;-62
2024/03/14 02:05:38;;;;;;;11.90;7.97;;;9.00;99.90;;;;;;5020948;28;20505;-63
2024/03/14 02:08:24;;;;;;;11.32;7.28;;;9.00;99.90;;;;;;5017091;28;20041;-62
2024/03/14 02:11:10;;;;;;;13.98;8.90;;;9.00;99.90;;;;;;5014743;28;20106;-62
2024/03/14 02:13:57;;;;;;;13.40;8.60;;;9.00;99.90;;;;;;5014451;28;20467;-62
2024/03/14 02:16:43;;;;;;;17.67;9.55;;;9.00;99.90;;;;;;5013755;28;20037;-62
2024/03/14 02:19:29;;;;;;;13.55;8.65;;;9.00;99.90;;;;;;5016653;28;20132;-62
2024/03/14 02:22:21;;;;;;;14.85;8.32;;;9.00;99.90;;;;;;5019221;28;20037;-62
2024/03/14 02:25:07;;;;;;;14.65;9.57;;;9.00;99.90;;;;;;5018606;28;20120;-62
2024/03/14 02:27:53;;;;;;;13.98;9.10;;;9.00;99.90;;;;;;5020133;28;20034;-62
2024/03/14 02:30:40;;;;;;;14.38;8.60;;;9.00;99.90;;;;;;5014744;28;20044;-62
2024/03/14 02:33:26;;;;;;;;;;;9.00;99.90;;;;;;5016709;28;20041;-63
2024/03/14 02:36:12;;;;;;;13.50;7.70;;;9.00;99.90;;;;;;5019206;28;19908;-63
2024/03/14 02:38:58;;;;;;;13.63;7.97;;;9.00;99.90;;;;;;5011793;28;20558;-63
2024/03/14 02:41:45;;;;;;;12.07;7.05;;;9.00;99.90;;;;;;5014991;28;20391;-63
2024/03/14 02:44:31;;;;;;;14.65;7.88;;;9.00;99.90;;;;;;5010987;28;21784;-63
2024/03/14 02:47:17;;;;;;;12.73;7.75;;;9.00;99.90;;;;;;5014125;28;20079;-63
2024/03/14 02:50:03;;;;;;;12.48;7.60;;;9.00;99.90;;;;;;5014211;28;20119;-63
2024/03/14 02:52:49;;;;;;;11.57;8.23;;;9.00;99.90;;;;;;5015936;28;20435;-63
2024/03/14 02:55:35;;;;;;;13.60;6.45;;;8.90;99.90;;;;;;5013981;28;20041;-63
2024/03/14 02:58:21;;;;;;;11.45;7.18;;;8.90;99.90;;;;;;5008960;28;20879;-63
2024/03/14 03:01:08;;;;;;;11.03;6.43;;;8.90;99.90;;;;;;5018709;28;20056;-63
2024/03/14 03:03:54;;;;;;;10.25;6.20;;;8.90;99.90;;;;;;5018639;28;20033;-63
2024/03/14 03:06:48;;;;;;;11.13;6.90;;;9.00;99.90;;;;;;5018220;28;20033;-63
2024/03/14 03:09:38;;;;;;;11.15;5.90;;;8.90;99.90;;;;;;5018599;28;20130;-63
2024/03/14 03:12:24;;;;;;;11.68;6.75;;;8.90;99.90;;;;;;5016504;28;20140;-63
2024/03/14 03:15:09;;;;;;;8.52;5.78;;;8.90;99.90;;;;;;5005463;28;20694;-63
2024/03/14 03:17:55;;;;;;;9.07;6.03;;;8.90;99.90;;;;;;5021531;28;20611;-63
2024/03/14 03:20:42;;;;;;;7.90;5.13;;;8.90;99.90;;;;;;5018393;28;20041;-63
2024/03/14 03:23:28;;;;;;;10.48;5.43;;;8.90;99.90;;;;;;5012781;28;20040;-63
2024/03/14 03:26:14;;;;;;;9.82;5.32;;;8.90;99.90;;;;;;5018085;28;20110;-63
2024/03/14 03:29:02;;;;;;;7.90;5.25;;;8.90;99.90;;;;;;5017504;28;20043;-63
2024/03/14 03:31:49;;;;;;;9.13;5.35;;;8.90;99.90;;;;;;5013658;28;20033;-63
2024/03/14 03:34:35;;;;;;;12.07;6.80;;;8.90;99.90;;;;;;5013525;28;20521;-63
2024/03/14 03:37:21;;;;;;;12.07;6.28;;;8.90;99.90;;;;;;5013476;28;20037;-63
2024/03/14 03:40:14;;;;;;;10.95;6.82;;;8.90;99.90;;;;;;5018150;28;20449;-63
2024/03/14 03:43:00;;;;;;;9.45;6.25;;;8.80;99.90;;;;;;5014211;28;20657;-63
2024/03/14 03:45:46;;;;;;;13.70;7.15;;;8.90;99.90;;;;;;5015608;28;20080;-63
2024/03/14 03:48:38;;;;;;;12.10;7.17;;;8.90;99.90;;;;;;5014868;28;20500;-63
2024/03/14 03:51:24;;;;;;;10.95;7.72;;;8.90;99.90;;;;;;5019766;28;20049;-63
2024/03/14 03:54:10;;;;;;;10.98;7.82;;;8.80;99.90;;;;;;5019052;28;20034;-63
2024/03/14 03:56:56;;;;;;;10.27;6.75;;;8.90;99.90;;;;;;5022049;28;20068;-63
2024/03/14 03:59:44;;;;;;;10.23;7.05;;;8.90;99.90;;;;;;5018375;28;20038;-63
2024/03/14 04:02:30;;;;;;;10.95;7.18;;;8.80;99.90;;;;;;5020850;28;20049;-63
2024/03/14 04:05:17;;;;;;;13.05;6.85;;;8.80;99.90;;;;;;5018521;28;20497;-63
2024/03/14 04:08:07;;;;;;;14.05;7.57;;;8.90;99.90;;;;;;5016594;28;20034;-63
2024/03/14 04:10:53;;;;;;;12.80;7.57;;;8.80;99.90;;;;;;5020160;28;20079;-63
2024/03/14 04:13:39;;;;;;;10.73;7.57;;;8.80;99.90;;;;;;5024049;28;20030;-63
2024/03/14 04:16:28;;;;;;;9.82;6.53;;;8.70;99.90;;;;;;5021934;28;20091;-63
2024/03/14 04:19:17;;;;;;;10.18;5.75;;;8.70;99.90;;;;;;5016071;28;20048;-63
2024/03/14 04:22:05;;;;;;;10.35;6.38;;;8.70;99.90;;;;;;5020537;28;20037;-63
2024/03/14 04:24:51;;;;;;;12.18;6.68;;;8.70;99.90;;;;;;5024344;28;20501;-63
2024/03/14 04:27:40;;;;;;;8.52;6.25;;;8.50;99.90;;;;;;5022304;28;20103;-63
2024/03/14 04:30:27;;;;;;;9.00;6.13;;;8.50;99.90;;;;;;5018618;28;20037;-63
2024/03/14 04:33:13;;;;;;;10.82;6.47;;;8.40;99.90;;;;;;5019608;28;20503;-63
2024/03/14 04:35:59;;;;;;;10.35;6.13;;;8.40;99.90;;;;;;5022740;28;20033;-63
2024/03/14 04:38:47;;;;;;;8.77;5.57;;;8.30;99.90;;;;;;5019473;28;20407;-63
2024/03/14 04:41:32;;;;;;;12.30;6.50;;;8.20;99.90;;;;;;5017886;28;20099;-63
2024/03/14 04:44:19;;;;;;;11.10;6.57;;;8.20;99.90;;;;;;5019636;28;20446;-63
2024/03/14 04:47:10;;;;;;;16.90;7.65;;;8.10;99.90;;;;;;5006777;28;20033;-63
2024/03/14 04:49:56;;;;;;;13.93;7.22;;;8.10;99.90;;;;;;5021459;28;20041;-63
2024/03/14 04:52:41;;;;;;;12.55;6.85;;;8.00;99.90;;;;;;5022338;28;20041;-63
2024/03/14 04:55:27;;;;;;;14.05;6.88;;;7.90;99.90;;;;;;5018900;28;20044;-63
2024/03/14 04:58:15;;;;;;;10.73;6.22;;;7.90;99.90;;;;;;5018204;28;20034;-63
2024/03/14 05:01:01;;;;;;;11.35;6.30;;;7.90;99.90;;;;;;5005136;28;20069;-63
2024/03/14 05:03:47;;;;;;;16.52;7.28;;;7.90;99.90;;;;;;5003270;28;20032;-63
2024/03/14 05:06:32;;;;;;;10.05;7.43;;;7.90;99.90;;;;;;5017062;28;20041;-63
2024/03/14 05:09:21;;;;;;;8.68;6.22;;;7.90;99.90;;;;;;5019352;28;20360;-63
2024/03/14 05:12:07;;;;;;;11.20;6.60;;;7.90;99.90;;;;;;5005184;28;20033;-63
2024/03/14 05:14:54;;;;;;;11.27;6.83;;;7.90;99.90;;;;;;5019531;28;20029;-63
2024/03/14 05:17:44;;;;;;;;;;;7.90;99.90;;;;;;5020248;28;20037;-63
2024/03/14 05:20:30;;;;;;;11.90;6.25;;;7.90;99.90;;;;;;5015554;28;20644;-63
2024/03/14 05:23:16;;;;;;;12.10;6.53;;;7.80;99.90;;;;;;5020526;28;20033;-63
2024/03/14 05:26:06;;;;;;;9.33;6.53;;;7.80;99.90;;;;;;5018126;28;20033;-63
2024/03/14 05:28:51;;;;;;;10.40;6.78;;;7.80;99.90;;;;;;5017414;28;20076;-63
2024/03/14 05:31:37;;;;;;;9.88;7.07;;;7.80;99.90;;;;;;5012706;28;20034;-63
2024/03/14 05:34:23;;;;;;;9.82;6.43;;;7.90;99.90;;;;;;5019477;28;20029;-63
2024/03/14 05:37:09;;;;;;;11.02;7.63;;;7.90;99.90;;;;;;5019621;28;20033;-63
2024/03/14 05:39:56;;;;;;;11.77;7.45;;;7.90;99.90;;;;;;5021980;28;20125;-63
2024/03/14 05:42:42;;;;;;;17.42;8.45;;;7.90;99.90;;;;;;5014745;28;20057;-63
2024/03/14 05:45:33;;;;;;;17.30;8.52;;;7.90;99.90;;;;;;5017336;28;20034;-63
2024/03/14 05:48:23;;;;;;;13.88;8.48;;;7.90;99.90;;;;;;5020106;28;20026;-63
2024/03/14 05:51:11;;;;;;;10.63;7.60;;;7.90;99.90;;;;;;5020610;28;20025;-63
2024/03/14 05:53:57;;;;;;;12.55;7.82;;;7.90;99.90;;;;;;5020405;28;20037;-63
2024/03/14 05:56:43;;;;;;;10.87;7.63;;;7.90;99.90;;;;;;5014835;28;20715;-63
2024/03/14 05:59:29;;;;;;;11.15;7.88;;;7.90;99.90;;;;;;5021047;28;20838;-63
2024/03/14 06:02:16;;;;;;;10.23;7.63;;;7.90;99.90;;;;;;5012327;28;20546;-63
2024/03/14 06:05:03;;;;;;;12.70;7.85;;;7.90;99.90;;;;;;5004426;28;20043;-63
2024/03/14 06:07:50;;;;;;;;;;;7.90;99.90;;;;;;5021524;28;20041;-63
2024/03/14 06:10:36;;;;;;;11.13;6.88;;;7.90;99.90;;;;;;5018258;28;19915;-63
2024/03/14 06:13:22;;;;;;;12.38;7.65;;;7.90;99.90;;;;;;5021110;28;20045;-63
2024/03/14 06:16:09;;;;;;;11.95;7.47;;;7.80;99.90;;;;;;5018805;28;20473;-63
2024/03/14 06:18:55;;;;;;;13.43;8.57;;;7.80;99.90;;;;;;5021778;28;20034;-63
2024/03/14 06:21:41;;;;;;;12.02;7.70;;;7.80;99.90;;;;;;5013054;28;20065;-63
2024/03/14 06:24:26;;;;;;;14.97;7.07;;;7.80;99.90;;;;;;5022372;28;20090;-63
2024/03/14 06:27:12;;;;;;;14.13;7.95;;;7.80;99.90;;;;;;5015198;28;20029;-64
2024/03/14 06:29:58;;;;;;;12.82;7.22;;;7.70;99.90;;;;;;5002789;28;20033;-63
2024/03/14 06:32:47;;;;;;;13.82;7.65;;;7.70;99.90;;;;;;5017133;28;20029;-63
2024/03/14 06:35:34;;;;;;;10.48;6.70;;;7.70;99.90;;;;;;5018028;28;20041;-63
2024/03/14 06:38:20;;;;;;;17.80;7.95;;;7.70;99.90;;;;;;5001699;28;20575;-63
2024/03/14 06:41:05;;;;;;;11.57;8.02;;;7.70;99.90;;;;;;5017016;28;20033;-63
2024/03/14 06:43:51;;;;;;;13.95;7.85;;;7.70;99.90;;;;;;5016238;28;20038;-63
2024/03/14 06:46:39;;;;;;;12.32;7.90;;;7.80;99.90;;;;;;5014729;28;20421;-63
2024/03/14 06:49:26;;;;;;;20.42;8.55;;;7.80;99.90;;;;;;5021135;28;20113;-63
2024/03/14 06:52:12;;;;;;;12.63;7.60;;;7.90;99.90;;;;;;5018380;28;20553;-63
2024/03/14 06:54:58;;;;;;;12.40;7.75;;;7.90;99.90;;;;;;5017407;28;20041;-63
2024/03/14 06:57:47;;;;;;;11.65;8.13;;;7.80;99.90;;;;;;5020368;28;20083;-63
2024/03/14 07:00:33;;;;;;;14.75;9.07;;;7.90;99.90;;;;;;5011185;28;20069;-63
2024/03/14 07:03:21;;;;;;;14.60;8.07;;;8.00;99.90;;;;;;5018207;28;20487;-63
2024/03/14 07:06:12;;;;;;;13.18;7.43;;;8.10;99.90;;;;;;5016802;28;20063;-63
2024/03/14 07:08:59;;;;;;;12.63;7.45;;;8.10;99.90;;;;;;5018985;28;20084;-63
2024/03/14 07:11:45;;;;;;;13.23;7.57;;;8.30;99.90;;;;;;5016586;28;20034;-63
2024/03/14 07:14:31;;;;;;;14.15;7.80;;;8.40;99.90;;;;;;5019284;28;20609;-63
2024/03/14 07:17:18;;;;;;;13.38;7.93;;;8.50;99.90;;;;;;5018461;28;20426;-64
2024/03/14 07:20:17;;;;;;;13.60;8.38;;;8.50;99.90;;;;;;5021948;28;20034;-63
2024/03/14 07:23:03;;;;;;;13.13;7.70;;;8.60;99.90;;;;;;5018824;28;20033;-63
2024/03/14 07:25:52;;;;;;;11.80;7.87;;;8.70;99.90;;;;;;5016305;28;21282;-64
2024/03/14 07:28:38;;;;;;;10.82;7.10;;;8.80;99.90;;;;;;5015853;28;20087;-64
2024/03/14 07:31:28;;;;;;;10.23;7.20;;;8.90;99.90;;;;;;5019681;28;20569;-63
2024/03/14 07:34:15;;;;;;;12.73;7.32;;;8.90;99.90;;;;;;5022822;28;20033;-63
2024/03/14 07:37:01;;;;;;;11.93;8.10;;;9.00;99.90;;;;;;5019566;28;20029;-63
2024/03/14 07:39:48;;;;;;;11.30;7.53;;;9.20;99.90;;;;;;5025188;28;20107;-63
2024/03/14 07:42:33;;;;;;;10.70;7.65;;;9.20;99.90;;;;;;5019512;28;20421;-64
2024/03/14 07:45:21;;;;;;;15.32;8.45;;;9.40;99.90;;;;;;5016872;28;20037;-63
2024/03/14 07:48:10;;;;;;;13.20;7.90;;;9.40;99.90;;;;;;5023220;28;20044;-65
2024/03/14 07:50:58;;;;;;;12.13;7.70;;;9.40;99.90;;;;;;5022276;28;20034;-65
2024/03/14 07:53:46;;;;;;;11.90;7.97;;;9.40;99.90;;;;;;5023372;28;20513;-64
2024/03/14 07:56:32;;;;;;;14.52;7.85;;;9.50;99.90;;;;;;5015935;28;20045;-65
2024/03/14 07:59:19;;;;;;;10.93;7.28;;;9.50;99.90;;;;;;5019510;28;20037;-65
2024/03/14 08:02:07;;;;;;;;;;;9.60;99.90;;;;;;5019529;28;20048;-65
2024/03/14 08:04:53;;;;;;;11.18;7.25;;;9.70;99.90;;;;;;5021905;28;19959;-64
2024/03/14 08:07:38;;;;;;;12.30;7.40;;;9.80;99.90;;;;;;5020650;28;20049;-65
2024/03/14 08:10:25;;;;;;;12.00;7.72;;;9.90;99.90;;;;;;5018299;28;20040;-65
2024/03/14 08:13:17;;;;;;;11.50;7.60;;;9.90;99.90;;;;;;5018580;28;20442;-64
2024/03/14 08:16:18;;;;;;;11.95;7.38;;;9.90;99.90;;;;;;5022498;28;20041;-62
2024/03/14 08:19:09;;;;;;;9.35;6.75;;;10.00;99.90;;;;;;5021113;28;20044;-63
2024/03/14 08:21:57;;;;;;;13.18;7.00;;;10.20;99.90;;;;;;5017430;28;20033;-62
2024/03/14 08:24:47;;;;;;;10.15;7.60;;;10.20;99.90;;;;;;5022024;28;20175;-63
2024/03/14 08:27:33;;;;;;;11.43;7.40;;;10.20;99.90;;;;;;5021288;28;20045;-63
2024/03/14 08:30:19;;;;;;;9.43;6.90;;;10.20;99.90;;;;;;5016221;28;20049;-63
2024/03/14 08:33:07;;;;;;;11.05;7.68;;;10.20;99.90;;;;;;5023463;28;20179;-62
2024/03/14 08:35:53;;;;;;;9.25;6.60;;;10.20;99.90;;;;;;4995958;28;20033;-62
2024/03/14 08:38:38;;;;;;;10.10;6.87;;;10.40;99.90;;;;;;5019038;28;20434;-62
2024/03/14 08:41:24;;;;;;;8.45;6.22;;;10.50;99.90;;;;;;5017414;28;20060;-62
2024/03/14 08:44:11;;;;;;;12.00;6.35;;;10.60;99.90;;;;;;5023992;28;20029;-62
2024/03/14 08:46:57;;;;;;;8.88;5.85;;;10.70;99.90;;;;;;5018028;28;20418;-62
2024/03/14 08:49:43;;;;;;;8.73;6.50;;;10.70;99.90;;;;;;5019881;28;20045;-62
2024/03/14 08:52:29;;;;;;;9.15;6.32;;;10.70;99.90;;;;;;5023783;28;20076;-62
2024/03/14 08:55:23;;;;;;;9.00;5.90;;;10.80;99.90;;;;;;5022494;28;20033;-62
2024/03/14 08:58:09;;;;;;;6.60;4.82;;;10.90;99.90;;;;;;5015786;28;20037;-62
2024/03/14 09:00:59;;;;;;;7.45;5.47;;;11.10;99.90;;;;;;5015367;28;20049;-62
2024/03/14 09:03:45;;;;;;;6.93;5.25;;;11.30;99.90;;;;;;5021391;28;20045;-62
2024/03/14 09:06:31;;;;;;;10.88;5.50;;;11.50;99.90;;;;;;5016516;28;20422;-62
2024/03/14 09:09:23;;;;;;;6.93;4.80;;;11.60;99.90;;;;;;5022276;28;20097;-62
2024/03/14 09:12:13;;;;;;;7.88;4.53;;;11.70;99.90;;;;;;5019066;28;20040;-62
2024/03/14 09:14:59;;;;;;;11.32;5.20;;;11.90;99.90;;;;;;5023053;28;22504;-63
2024/03/14 09:17:45;;;;;;;7.97;4.95;;;11.90;99.90;;;;;;5021598;28;20033;-62
2024/03/14 09:20:31;;;;;;;8.27;5.30;;;11.90;99.90;;;;;;5020004;28;20058;-62
2024/03/14 09:23:19;;;;;;;10.07;5.30;;;11.90;99.90;;;;;;5024398;28;20568;-62
2024/03/14 09:26:05;;;;;;;9.93;4.65;;;12.00;99.90;;;;;;5015509;28;20619;-62
2024/03/14 09:28:53;;;;;;;6.25;4.07;;;12.00;99.90;;;;;;5020716;28;20021;-62
2024/03/14 09:31:43;;;;;;;6.47;4.78;;;12.10;99.90;;;;;;5015858;28;20433;-63
2024/03/14 09:34:29;;;;;;;7.68;3.83;;;12.20;99.90;;;;;;5024506;28;20093;-62
2024/03/14 09:37:16;;;;;;;10.88;4.70;;;12.30;99.90;;;;;;5021136;28;20037;-62
2024/03/14 09:40:05;;;;;;;6.38;3.78;;;12.50;99.90;;;;;;5023858;28;20816;-63
2024/03/14 09:42:59;;;;;;;7.13;4.68;;;12.60;99.90;;;;;;5021462;28;20037;-62
2024/03/14 09:45:48;;;;;;;8.27;4.20;;;12.70;99.90;;;;;;5006218;28;20041;-62
2024/03/14 09:48:35;;;;;;;5.20;3.75;;;12.70;99.90;;;;;;5017698;28;20044;-62
2024/03/14 09:51:21;;;;;;;7.32;4.20;;;12.80;99.90;;;;;;5012922;28;20030;-62
2024/03/14 09:54:07;;;;;;;7.43;3.47;;;12.90;99.90;;;;;;5018583;28;20575;-62
2024/03/14 09:56:54;;;;;;;7.67;3.70;;;13.10;99.90;;;;;;5016765;28;20068;-62
2024/03/14 09:59:40;;;;;;;5.25;3.00;;;13.10;99.90;;;;;;5019979;28;20044;-62
2024/03/14 10:02:26;;;;;;;6.90;3.17;;;13.10;99.90;;;;;;5015772;28;20083;-62
2024/03/14 10:05:12;;;;;;;6.47;3.45;;;13.10;99.90;;;;;;5014115;28;20030;-62
2024/03/14 10:08:00;;;;;;;4.87;2.97;;;13.20;99.90;;;;;;5017108;28;20045;-63
2024/03/14 10:10:46;;;;;;;4.40;3.25;;;13.30;99.90;;;;;;5011730;28;20288;-63
2024/03/14 10:13:32;;;;;;;3.78;2.72;;;13.30;99.90;;;;;;5021283;28;20607;-63
2024/03/14 10:16:21;;;;;;;3.83;2.72;;;13.40;99.90;;;;;;5015318;28;20029;-63
2024/03/14 10:19:07;;;;;;;5.18;2.95;;;13.40;99.90;;;;;;5020839;28;20033;-63
2024/03/14 10:21:54;;;;;;;6.80;3.33;;;13.40;99.90;;;;;;5014122;28;20125;-63
2024/03/14 10:24:39;;;;;;;;;;;13.40;99.90;;;;;;5020804;28;20064;-63
2024/03/14 10:27:25;;;;;;;6.20;3.08;;;13.30;99.90;;;;;;5012387;28;19927;-63
2024/03/14 10:30:12;;;;;;;7.00;2.78;;;13.30;99.90;;;;;;5016664;28;20026;-63
2024/03/14 10:32:58;;;;;;;4.40;2.83;;;13.20;99.90;;;;;;5018326;28;20040;-63
2024/03/14 10:35:45;;;;;;;5.18;2.40;;;13.30;99.90;;;;;;5019110;28;20065;-63
2024/03/14 10:38:36;;;;;;;5.05;2.72;;;13.40;99.90;;;;;;5015582;28;20034;-63
2024/03/14 10:41:23;;;;;;;3.60;2.55;;;13.50;99.90;;;;;;5013605;28;20033;-63
2024/03/14 10:44:15;;;;;;;4.55;2.75;;;13.60;99.90;;;;;;5012555;28;20489;-63
2024/03/14 10:47:02;;;;;;;2.97;2.15;;;13.80;99.90;;;;;;5011690;28;20053;-63
2024/03/14 10:49:48;;;;;;;4.93;2.35;;;13.70;99.90;;;;;;5008661;28;20018;-63
2024/03/14 10:52:34;;;;;;;4.60;2.60;;;13.60;99.90;;;;;;5010656;28;20038;-63
2024/03/14 10:55:21;;;;;;;3.50;2.40;;;13.60;99.90;;;;;;5013472;28;20384;-63
2024/03/14 10:58:08;;;;;;;3.20;2.30;;;13.70;99.90;;;;;;5013478;28;20087;-63
2024/03/14 11:00:56;;;;;;;3.63;2.10;;;14.00;99.90;;;;;;5012034;28;20044;-63
2024/03/14 11:03:42;;;;;;;4.00;2.50;;;14.20;99.90;;;;;;5016072;28;20064;-63
2024/03/14 11:06:34;;;;;;;3.05;2.25;;;14.10;99.90;;;;;;5013709;28;20034;-63
2024/03/14 11:09:24;;;;;;;2.75;1.98;;;14.10;99.90;;;;;;5016051;28;20037;-63
2024/03/14 11:12:18;;;;;;;4.07;1.98;;;14.00;99.90;;;;;;5010791;28;20033;-62
2024/03/14 11:15:11;;;;;;;5.00;1.80;;;14.00;99.90;;;;;;5018433;28;20048;-63
2024/03/14 11:17:59;;;;;;;4.38;2.17;;;14.00;99.90;;;;;;5012755;28;20099;-63
2024/03/14 11:20:54;;;;;;;3.72;2.05;;;14.10;99.90;;;;;;5013873;28;20122;-63
2024/03/14 11:23:41;;;;;;;3.80;2.03;;;14.20;99.90;;;;;;5013898;28;20501;-63
2024/03/14 11:26:29;;;;;;;;;;;14.40;99.90;;;;;;5014792;28;20042;-63
2024/03/14 11:29:20;;;;;;;3.47;1.75;;;14.60;99.90;;;;;;5016070;28;19916;-64
2024/03/14 11:32:18;;;;;;;2.08;1.50;;;14.80;99.90;;;;;;5013520;28;20049;-63
2024/03/14 11:35:26;;;;;;;;;;;14.80;99.90;;;;;;5014275;28;20026;-63
2024/03/14 11:38:18;;;;;;;4.13;2.35;;;14.80;99.90;;;;;;5015100;28;19913;-63
2024/03/14 11:41:06;;;;;;;2.80;1.67;;;14.80;99.90;;;;;;5013251;28;20041;-63
2024/03/14 11:43:54;;;;;;;3.40;1.85;;;14.90;99.90;;;;;;5015567;28;20068;-63
2024/03/14 11:46:40;;;;;;;4.47;1.58;;;14.90;99.90;;;;;;5003836;28;20025;-63
2024/03/14 11:49:29;;;;;;;4.25;1.63;;;14.90;99.90;;;;;;5017940;28;20110;-64
2024/03/14 11:52:15;;;;;;;3.88;1.58;;;14.90;99.90;;;;;;5013310;28;20481;-63
2024/03/14 11:55:06;;;;;;;5.53;1.38;;;15.00;99.90;;;;;;5019929;28;20048;-63
2024/03/14 11:57:52;;;;;;;10.30;1.15;;;15.00;99.90;;;;;;5020187;28;20045;-65
2024/03/14 12:00:38;;;;;;;2.22;1.08;;;15.10;99.90;;;;;;5013313;28;20042;-64
2024/03/14 12:03:24;;;;;;;3.92;1.10;;;15.20;99.90;;;;;;5014773;28;20148;-65
2024/03/14 12:06:10;;;;;;;4.82;1.30;;;15.10;99.90;;;;;;5018418;28;20030;-64
2024/03/14 12:08:57;;;;;;;1.05;0.70;;;15.00;99.90;;;;;;5019986;28;20060;-62
2024/03/14 12:11:44;;;;;;;3.20;0.82;;;15.00;99.90;;;;;;5015717;28;20045;-65
2024/03/14 12:14:33;;;;;;;2.22;1.52;;;15.20;99.90;;;;;;5023613;28;20048;-63
2024/03/14 12:17:18;;;;;;;4.75;1.00;;;15.30;99.90;;;;;;5018180;28;20033;-65
2024/03/14 12:20:10;;;;;;;2.47;1.30;;;15.40;99.90;;;;;;5022345;28;20045;-65
2024/03/14 12:22:57;;;;;;;2.55;1.17;;;15.60;99.90;;;;;;5018217;28;20696;-64
2024/03/14 12:25:46;;;;;;;1.23;0.90;;;15.60;99.90;;;;;;5016380;28;20033;-64
2024/03/14 12:28:33;;;;;;;1.83;1.00;;;15.50;99.90;;;;;;5018488;28;20037;-65
2024/03/14 12:31:19;;;;;;;2.58;1.10;;;15.40;99.90;;;;;;5020701;28;20033;-64
2024/03/14 12:34:06;;;;;;;3.22;1.02;;;15.40;99.90;;;;;;5012543;28;20298;-64
2024/03/14 12:36:52;;;;;;;1.33;0.70;;;15.40;99.90;;;;;;5013882;28;20149;-64
2024/03/14 12:39:50;;;;;;;1.60;0.95;;;15.40;99.90;;;;;;5003265;28;20060;-64
2024/03/14 12:42:36;;;;;;;;;;;15.40;99.90;;;;;;5016611;28;20045;-64
2024/03/14 12:45:25;;;;;;;3.67;1.40;;;15.30;99.90;;;;;;5013273;28;19921;-64
2024/03/14 12:48:17;;;;;;;2.50;0.98;;;15.30;99.90;;;;;;5023026;28;20056;-64
2024/03/14 12:51:12;;;;;;;3.70;1.25;;;15.20;99.90;;;;;;5012680;28;20030;-64
2024/03/14 12:54:03;;;;;;;3.95;1.15;;;15.20;99.90;;;;;;5020549;28;20077;-64
2024/03/14 12:56:53;;;;;;;1.98;1.00;;;15.10;99.90;;;;;;5016805;28;20029;-64
2024/03/14 12:59:40;;;;;;;8.55;1.15;;;15.20;99.90;;;;;;5019277;28;20531;-64
2024/03/14 13:02:26;;;;;;;2.28;1.27;;;15.30;99.90;;;;;;5014505;28;20057;-65
2024/03/14 13:05:19;;;;;;;4.07;1.40;;;15.40;99.90;;;;;;5004839;28;20043;-65
2024/03/14 13:08:07;;;;;;;4.90;1.30;;;15.50;99.90;;;;;;5018104;28;20037;-65
2024/03/14 13:11:08;;;;;;;2.85;1.30;;;15.50;99.90;;;;;;5012201;28;20034;-65
2024/03/14 13:14:15;;;;;;;3.60;1.20;;;15.40;99.90;;;;;;5021231;28;20421;-64
2024/03/14 13:17:06;;;;;;;4.75;1.00;;;15.40;99.90;;;;;;5018586;28;20310;-64
2024/03/14 13:19:56;;;;;;;1.55;0.80;;;15.50;99.90;;;;;;5022580;28;20768;-65
2024/03/14 13:22:43;;;;;;;4.78;0.90;;;15.50;99.90;;;;;;5017557;28;20041;-65
2024/03/14 13:25:28;;;;;;;2.97;1.13;;;15.60;99.90;;;;;;5013846;28;20038;-65
2024/03/14 13:28:14;;;;;;;3.58;0.90;;;15.70;99.90;;;;;;5019085;28;20038;-65
2024/03/14 13:31:01;;;;;;;3.47;1.45;;;15.70;99.90;;;;;;5017669;28;20029;-65
2024/03/14 13:33:47;;;;;;;2.25;1.10;;;15.60;99.90;;;;;;5017280;28;20054;-64
2024/03/14 13:36:36;;;;;;;2.25;0.77;;;15.70;99.90;;;;;;5014604;28;20199;-65
2024/03/14 13:39:25;;;;;;;2.63;1.05;;;15.60;99.90;;;;;;5019886;28;20037;-65
2024/03/14 13:42:11;;;;;;;4.70;1.08;;;15.60;99.90;;;;;;5017518;28;20482;-65
2024/03/14 13:44:57;;;;;;;4.45;0.90;;;15.60;99.90;;;;;;5021043;28;20033;-65
2024/03/14 13:47:47;;;;;;;6.75;1.35;;;15.50;99.90;;;;;;5016571;28;20045;-64
2024/03/14 13:50:34;;;;;;;3.17;0.90;;;15.50;99.90;;;;;;5016406;28;20811;-65
2024/03/14 13:53:24;;;;;;;3.25;1.27;;;15.40;99.90;;;;;;5019836;28;20033;-65
2024/03/14 13:56:13;;;;;;;2.08;1.10;;;15.40;99.90;;;;;;5016117;28;20902;-65
2024/03/14 13:59:02;;;;;;;2.22;0.70;;;15.20;99.90;;;;;;5022526;28;20049;-64
2024/03/14 14:01:48;;;;;;;3.53;0.90;;;15.20;99.90;;;;;;5015472;28;20458;-64
2024/03/14 14:04:34;;;;;;;3.97;1.30;;;15.30;99.90;;;;;;5017392;28;20076;-65
2024/03/14 14:07:20;;;;;;;5.72;1.23;;;15.30;99.90;;;;;;5017314;28;20038;-65
2024/03/14 14:10:09;;;;;;;3.03;1.10;;;15.30;99.90;;;;;;5019992;28;20783;-65
2024/03/14 14:12:55;;;;;;;2.78;1.20;;;15.30;99.90;;;;;;5017562;28;20038;-66
2024/03/14 14:15:43;;;;;;;2.88;0.90;;;15.30;99.90;;;;;;5017869;28;20560;-64
2024/03/14 14:18:29;;;;;;;2.90;1.08;;;15.40;99.90;;;;;;5019986;28;20482;-63
2024/03/14 14:21:15;;;;;;;7.00;1.10;;;15.40;99.90;;;;;;5010100;28;20040;-64
2024/03/14 14:24:01;;;;;;;5.32;1.35;;;15.20;99.90;;;;;;5012218;28;20417;-63
2024/03/14 14:26:47;;;;;;;3.63;1.43;;;15.20;99.90;;;;;;5016420;28;20036;-63
2024/03/14 14:29:33;;;;;;;4.57;1.33;;;15.10;99.90;;;;;;5016137;28;20262;-63
2024/03/14 14:32:23;;;;;;;4.22;0.95;;;15.00;99.90;;;;;;5016869;28;20036;-63
2024/03/14 14:35:09;;;;;;;4.00;0.93;;;15.00;99.90;;;;;;5015669;28;20113;-63